Hecla, Pennsylvania
Current Conditions -  °F | °C
As of 10:55 PM on Thursday 18 Dec 2014 (Local Time) from KHZL Reporting Station
Overcast Overcast  
Wind Chill: 24°   Ceiling: 1900
Heat Index: 32°   Visibility: 10mi
Dew Point: 27°   Wind: 10mph
Humidity: 80%   Direction: 290°WNW
Pressure: 29.99"   Gusts: 17mph
Location:  40.7138°N, 75.9395°W
Report Text: KHZL 190355Z AUTO 29009G15KT 250V310 10SM BKN019 OVC025 00/M03 A2999 RMK AO2
Loading
Personal Weather Stations






























Interactive Weather Map New forecast layout! Learn more

10-Day Weather Forecast

Advertisements
Track Severe Weather on mobile